Time;durP1;ratioP1;P1;durP2;ratioP2;P2;SDS_P1;SDS_P2;PMS_P1;PMS_P2;Temp;Humidity;BMP_temperature;BMP_pressure;BME280_temperature;BME280_humidity;BME280_pressure;Samples;Min_cycle;Max_cycle;Signal;HPM_P1;HPM_P2
2022/05/02 00:00:42;;;;;;;14.75;7.47;;;;;;;3.92;100.00;101336.34;1739293;81;20952;-44
2022/05/02 00:03:09;;;;;;;20.68;7.15;;;;;;;3.88;100.00;101339.24;1735909;82;20934;-44
2022/05/02 00:05:36;;;;;;;8.75;5.92;;;;;;;3.81;100.00;101339.05;1736074;82;21864;-44
2022/05/02 00:08:04;;;;;;;21.02;9.35;;;;;;;3.68;100.00;101333.66;1735756;82;20945;-44
2022/05/02 00:10:32;;;;;;;19.37;12.03;;;;;;;3.68;100.00;101333.66;1735809;82;21300;-44
2022/05/02 00:13:00;;;;;;;16.55;9.98;;;;;;;3.61;100.00;101334.75;1735887;82;21004;-44
2022/05/02 00:15:28;;;;;;;14.18;8.20;;;;;;;3.55;100.00;101339.30;1735860;82;21427;-44
2022/05/02 00:17:57;;;;;;;12.18;8.80;;;;;;;3.51;100.00;101340.05;1735733;82;20918;-45
2022/05/02 00:20:30;;;;;;;16.15;8.25;;;;;;;3.47;100.00;101339.53;1735830;82;20894;-44
2022/05/02 00:22:59;;;;;;;14.90;8.53;;;;;;;3.42;100.00;101335.16;1735719;82;21118;-44
2022/05/02 00:25:28;;;;;;;15.43;8.83;;;;;;;3.36;100.00;101327.73;1735830;82;20901;-44
2022/05/02 00:27:56;;;;;;;15.35;10.88;;;;;;;3.29;100.00;101336.95;1715296;82;21475;-44
2022/05/02 00:30:23;;;;;;;9.85;8.20;;;;;;;3.24;100.00;101342.36;1715034;82;20925;-44
2022/05/02 00:32:52;;;;;;;12.68;9.10;;;;;;;3.17;100.00;101338.77;1735885;82;20937;-43
2022/05/02 00:35:18;;;;;;;12.00;6.30;;;;;;;3.14;100.00;101339.97;1735794;82;21950;-43
2022/05/02 00:37:47;;;;;;;9.68;7.40;;;;;;;3.09;100.00;101339.84;1735781;82;21411;-43
2022/05/02 00:40:15;;;;;;;10.72;8.10;;;;;;;3.06;100.00;101341.05;1735757;82;20972;-43
2022/05/02 00:42:43;;;;;;;12.33;7.22;;;;;;;3.03;100.00;101346.08;1735878;82;20981;-43
2022/05/02 00:45:11;;;;;;;12.53;7.25;;;;;;;3.00;100.00;101346.00;1735908;82;21021;-43
2022/05/02 00:47:37;;;;;;;14.63;6.85;;;;;;;3.09;100.00;101346.23;1714939;82;21036;-43
2022/05/02 00:50:06;;;;;;;8.45;6.83;;;;;;;3.10;100.00;101335.17;1739587;81;20905;-43
2022/05/02 00:52:33;;;;;;;10.65;7.08;;;;;;;3.10;100.00;101335.17;1715121;82;20933;-43
2022/05/02 00:55:02;;;;;;;11.08;6.35;;;;;;;3.14;100.00;101337.41;1739797;81;21231;-43
2022/05/02 00:57:29;;;;;;;13.10;6.35;;;;;;;3.18;100.00;101333.25;1735844;82;20952;-43
2022/05/02 00:59:56;;;;;;;16.77;7.33;;;;;;;3.25;100.00;101335.98;1738391;81;21454;-43
2022/05/02 01:02:23;;;;;;;11.15;6.45;;;;;;;3.25;100.00;101335.98;1743864;82;20945;-43
2022/05/02 01:04:51;;;;;;;11.20;6.58;;;;;;;3.36;100.00;101329.86;1744012;82;21478;-43
2022/05/02 01:07:20;;;;;;;8.95;6.50;;;;;;;3.43;100.00;101332.17;1743908;81;21434;-43
2022/05/02 01:09:51;;;;;;;9.75;6.80;;;;;;;3.51;100.00;101331.09;1743868;82;20992;-43
2022/05/02 01:12:22;;;;;;;17.15;6.15;;;;;;;3.58;100.00;101327.45;1743968;82;21763;-43
2022/05/02 01:14:52;;;;;;;12.98;6.03;;;;;;;3.52;100.00;101318.74;1743986;82;20979;-43
2022/05/02 01:17:18;;;;;;;8.78;6.58;;;;;;;3.52;100.00;101318.74;1744209;82;21459;-43
2022/05/02 01:19:45;;;;;;;9.43;6.75;;;;;;;3.49;100.00;101326.34;1744100;82;20925;-43
2022/05/02 01:22:12;;;;;;;10.20;6.50;;;;;;;3.56;100.00;101329.50;1744050;82;20964;-43
2022/05/02 01:24:41;;;;;;;9.30;6.15;;;;;;;3.69;100.00;101331.55;1714773;82;21269;-43
2022/05/02 01:27:09;;;;;;;9.30;6.58;;;;;;;3.78;100.00;101328.74;1744144;82;21209;-43
2022/05/02 01:29:38;;;;;;;6.95;6.22;;;;;;;3.84;100.00;101330.16;1744112;82;20999;-43
2022/05/02 01:32:07;;;;;;;6.90;6.20;;;;;;;3.85;100.00;101326.37;1739237;81;20881;-43
2022/05/02 01:34:36;;;;;;;6.40;5.70;;;;;;;3.85;100.00;101321.64;1744163;82;20885;-43
2022/05/02 01:37:03;;;;;;;10.63;6.10;;;;;;;3.85;100.00;101321.64;1744134;82;21178;-43
2022/05/02 01:39:30;;;;;;;10.58;6.47;;;;;;;3.85;100.00;101315.23;1744027;82;21655;-43
2022/05/02 01:42:04;;;;;;;9.58;5.50;;;;;;;3.80;100.00;101317.72;1744286;82;21395;-43
2022/05/02 01:44:31;;;;;;;11.20;5.87;;;;;;;3.85;100.00;101321.64;1714529;82;20944;-43
2022/05/02 01:46:57;;;;;;;14.38;6.42;;;;;;;3.92;100.00;101319.70;1744218;82;20870;-42
2022/05/02 01:49:24;;;;;;;6.30;5.47;;;;;;;3.94;100.00;101317.16;1744157;82;21391;-42
2022/05/02 01:51:51;;;;;;;7.42;4.85;;;;;;;3.92;100.00;101313.69;1715004;82;20981;-43
2022/05/02 01:54:17;;;;;;;10.78;5.33;;;;;;;3.93;100.00;101318.87;1744219;82;20873;-43
2022/05/02 01:56:44;;;;;;;7.42;5.05;;;;;;;3.93;100.00;101318.87;1744062;81;20932;-44
2022/05/02 01:59:11;;;;;;;9.88;5.28;;;;;;;3.92;100.00;101320.09;1744096;82;20960;-43
2022/05/02 02:01:38;;;;;;;9.10;5.47;;;;;;;3.79;100.00;101321.51;1736816;81;21983;-43
2022/05/02 02:06:52;;;;;;;6.22;5.08;;;;;;;3.69;100.00;101325.55;1736070;81;21025;-43
2022/05/02 02:09:18;;;;;;;7.12;5.35;;;;;;;3.57;100.00;101326.11;1736057;82;21809;-43
2022/05/02 02:11:45;;;;;;;6.58;5.40;;;;;;;3.42;100.00;101326.20;1735955;82;21518;-43
2022/05/02 02:14:12;;;;;;;10.95;7.00;;;;;;;3.20;100.00;101334.16;1735790;82;21038;-43
2022/05/02 02:16:39;;;;;;;11.33;6.75;;;;;;;2.97;100.00;101339.53;1735970;82;20925;-43
2022/05/02 02:19:06;;;;;;;13.05;6.53;;;;;;;2.73;100.00;101340.16;1735954;81;20921;-43
2022/05/02 02:21:32;;;;;;;10.28;6.65;;;;;;;2.56;100.00;101332.02;1736261;81;20944;-43
2022/05/02 02:23:59;;;;;;;9.18;6.40;;;;;;;2.46;100.00;101334.26;1736085;82;20917;-43
2022/05/02 02:26:25;;;;;;;9.15;6.40;;;;;;;2.34;100.00;101342.43;1736011;82;21074;-43
2022/05/02 02:28:53;;;;;;;9.80;6.05;;;;;;;2.25;100.00;101340.47;1735845;82;20973;-43
2022/05/02 02:31:20;;;;;;;10.75;4.97;;;;;;;2.18;100.00;101343.66;1735939;81;20962;-43
2022/05/02 02:33:46;;;;;;;7.35;6.33;;;;;;;2.09;100.00;101341.30;1736052;82;20981;-43
2022/05/02 02:36:13;;;;;;;7.60;6.10;;;;;;;2.09;100.00;101341.30;1736073;82;20889;-43
2022/05/02 02:38:40;;;;;;;13.40;6.33;;;;;;;2.08;100.00;101343.79;1735829;82;21102;-43
2022/05/02 02:41:06;;;;;;;9.25;6.70;;;;;;;2.06;100.00;101345.43;1735917;82;20910;-43
2022/05/02 02:43:33;;;;;;;9.88;6.60;;;;;;;2.06;100.00;101342.48;1736018;81;20972;-43
2022/05/02 02:46:00;;;;;;;18.07;6.50;;;;;;;2.09;100.00;101342.97;1733653;82;20937;-43
2022/05/02 02:48:26;;;;;;;9.75;6.87;;;;;;;2.10;100.00;101343.42;1715188;82;20925;-43
2022/05/02 02:50:53;;;;;;;13.83;6.72;;;;;;;2.09;100.00;101349.35;1735984;81;21101;-43
2022/05/02 02:53:20;;;;;;;14.50;7.22;;;;;;;2.08;100.00;101347.62;1735952;82;20972;-43
2022/05/02 02:55:46;;;;;;;10.43;7.90;;;;;;;2.08;100.00;101351.06;1735888;81;20944;-43
2022/05/02 02:58:13;;;;;;;15.45;9.43;;;;;;;2.09;100.00;101348.08;1735956;82;20918;-43
2022/05/02 03:00:41;;;;;;;19.80;10.10;;;;;;;2.10;100.00;101345.58;1735957;81;20909;-43
2022/05/02 03:03:07;;;;;;;13.22;9.33;;;;;;;2.13;100.00;101339.68;1736057;82;21953;-43
2022/05/02 03:08:22;;;;;;;7.62;5.58;;;;;;;2.22;100.00;101342.53;1736121;81;20917;-43
2022/05/02 03:10:49;;;;;;;11.80;5.60;;;;;;;2.36;100.00;101348.05;1735853;82;20952;-43
2022/05/02 03:13:16;;;;;;;6.70;4.85;;;;;;;2.50;100.00;101340.79;1736003;82;20937;-43
2022/05/02 03:15:43;;;;;;;10.72;5.78;;;;;;;2.69;100.00;101349.00;1715042;82;21214;-43
2022/05/02 03:18:09;;;;;;;9.93;5.62;;;;;;;2.86;100.00;101346.48;1735893;82;20957;-43
2022/05/02 03:20:36;;;;;;;7.37;5.37;;;;;;;3.04;100.00;101351.66;1735900;82;20925;-43
2022/05/02 03:23:02;;;;;;;8.50;5.40;;;;;;;3.14;100.00;101352.34;1735860;82;21008;-44
2022/05/02 03:25:28;;;;;;;8.03;5.45;;;;;;;3.25;100.00;101349.21;1735977;82;21479;-43
2022/05/02 03:27:55;;;;;;;7.00;5.50;;;;;;;3.35;100.00;101347.33;1736072;82;21200;-43
2022/05/02 03:30:22;;;;;;;6.95;5.95;;;;;;;3.47;100.00;101343.37;1735831;82;21027;-43
2022/05/02 03:32:48;;;;;;;8.95;5.55;;;;;;;3.59;100.00;101343.66;1735962;81;20968;-43
2022/05/02 03:35:15;;;;;;;7.35;6.00;;;;;;;3.91;100.00;101347.83;1735641;82;20953;-44
2022/05/02 03:37:41;;;;;;;9.00;6.45;;;;;;;3.91;100.00;101347.83;1735972;82;20969;-43
2022/05/02 03:40:09;;;;;;;7.22;5.90;;;;;;;4.28;100.00;101339.27;1735956;82;21217;-43
2022/05/02 03:42:37;;;;;;;11.05;6.83;;;;;;;4.28;100.00;101339.27;1735879;82;21455;-43
2022/05/02 03:45:06;;;;;;;15.63;6.62;;;;;;;4.51;100.00;101345.31;1714957;82;20846;-43
2022/05/02 03:47:33;;;;;;;7.60;5.47;;;;;;;4.74;100.00;101347.05;1735989;82;20929;-44
2022/05/02 03:50:00;;;;;;;6.20;5.55;;;;;;;5.02;100.00;101345.45;1735985;82;20850;-44
2022/05/02 03:52:26;;;;;;;8.25;5.50;;;;;;;5.31;100.00;101345.98;1735835;82;21084;-43
2022/05/02 03:54:53;;;;;;;10.58;5.53;;;;;;;5.59;100.00;101342.59;1735791;82;20913;-43
2022/05/02 03:57:19;;;;;;;9.45;5.58;;;;;;;5.84;100.00;101333.99;1735889;82;20933;-43
2022/05/02 03:59:47;;;;;;;5.45;4.95;;;;;;;6.10;100.00;101339.97;1735889;82;20937;-43
2022/05/02 04:02:13;;;;;;;9.55;5.00;;;;;;;6.37;100.00;101345.05;1743047;81;20964;-44
2022/05/02 04:04:40;;;;;;;7.22;5.10;;;;;;;6.68;100.00;101345.83;1744001;82;21149;-44
2022/05/02 04:07:07;;;;;;;7.53;4.75;;;;;;;6.98;100.00;101344.04;1744043;82;20925;-44
2022/05/02 04:09:33;;;;;;;11.57;5.08;;;;;;;7.33;100.00;101343.55;1714819;82;20929;-44
2022/05/02 04:12:01;;;;;;;8.08;4.95;;;;;;;7.64;100.00;101341.63;1743724;82;21450;-44
2022/05/02 04:14:27;;;;;;;15.05;5.00;;;;;;;7.93;100.00;101344.84;1744104;82;21487;-44
2022/05/02 04:16:54;;;;;;;9.23;4.97;;;;;;;8.13;100.00;101347.98;1744095;82;21134;-44
2022/05/02 04:19:20;;;;;;;14.65;4.47;;;;;;;8.32;100.00;101344.66;1714661;82;21098;-44
2022/05/02 04:21:47;;;;;;;11.25;4.37;;;;;;;8.43;100.00;101351.17;1744053;82;20952;-44
2022/05/02 04:24:14;;;;;;;5.87;4.17;;;;;;;8.64;100.00;101349.58;1743948;82;20996;-44
2022/05/02 04:26:41;;;;;;;10.95;4.90;;;;;;;8.98;100.00;101353.98;1744215;82;21517;-44
2022/05/02 04:29:07;;;;;;;16.37;5.33;;;;;;;9.22;100.00;101350.99;1743939;81;21093;-44
2022/05/02 04:31:34;;;;;;;12.25;5.08;;;;;;;9.34;100.00;101349.28;1743989;82;20957;-44
2022/05/02 04:34:00;;;;;;;8.78;5.22;;;;;;;9.52;100.00;101353.20;1744046;82;20881;-44
2022/05/02 04:36:27;;;;;;;8.80;4.60;;;;;;;9.73;100.00;101361.38;1743994;81;20933;-44
2022/05/02 04:38:53;;;;;;;8.28;4.85;;;;;;;9.93;100.00;101349.70;1735552;81;20897;-44
2022/05/02 04:41:20;;;;;;;5.12;4.42;;;;;;;10.09;100.00;101353.58;1743797;81;21239;-44
2022/05/02 04:43:51;;;;;;;13.88;4.87;;;;;;;10.33;100.00;101353.93;1744084;82;20999;-44
2022/05/02 04:46:14;;;;;;;13.15;4.85;;;;;;;10.55;99.61;101353.47;1743791;82;20921;-44
2022/05/02 04:48:41;;;;;;;9.95;4.60;;;;;;;10.74;98.14;101352.11;1743984;82;20967;-44
2022/05/02 04:51:08;;;;;;;8.65;5.28;;;;;;;10.97;96.87;101349.80;1744137;81;21538;-44
2022/05/02 04:53:35;;;;;;;12.65;4.53;;;;;;;11.19;94.88;101346.20;1744052;82;21785;-44
2022/05/02 04:56:02;;;;;;;9.63;4.90;;;;;;;11.35;91.88;101345.66;1743992;82;21588;-44
2022/05/02 04:58:29;;;;;;;6.92;4.30;;;;;;;11.54;89.24;101344.23;1743886;82;21481;-44
2022/05/02 05:00:55;;;;;;;8.25;4.60;;;;;;;11.76;86.99;101333.67;1745286;82;21466;-44
2022/05/02 05:03:22;;;;;;;18.85;4.85;;;;;;;12.01;83.05;101344.71;1739061;82;20943;-44
2022/05/02 05:05:49;;;;;;;11.97;4.28;;;;;;;12.12;81.47;101338.08;1749767;82;21273;-44
2022/05/02 05:08:15;;;;;;;8.05;4.37;;;;;;;12.31;79.28;101346.55;1749876;82;20881;-44
2022/05/02 05:11:06;;;;;;;7.45;4.75;;;;;;;12.50;77.51;101343.28;1749776;82;20960;-44
2022/05/02 05:17:05;;;;;;;10.32;4.65;;;;;;;12.88;73.80;101339.77;1871131;76;22177;-44
2022/05/02 05:19:50;;;;;;;8.23;4.50;;;;;;;12.93;71.93;101345.75;1827585;78;20971;-43
2022/05/02 05:22:28;;;;;;;5.58;4.20;;;;;;;13.07;70.20;101354.64;1827330;78;21048;-44
2022/05/02 05:25:35;;;;;;;11.08;4.35;;;;;;;13.33;68.86;101349.48;1827291;78;20916;-43
2022/05/02 05:28:26;;;;;;;7.92;3.70;;;;;;;13.49;67.88;101350.12;1827308;78;21370;-43
2022/05/02 05:31:01;;;;;;;6.12;3.60;;;;;;;13.86;65.08;101353.00;1827293;78;21746;-43
2022/05/02 05:33:49;;;;;;;14.90;4.30;;;;;;;14.20;61.82;101353.23;1789067;80;21006;-43
2022/05/02 05:36:27;;;;;;;5.12;3.72;;;;;;;14.43;59.07;101353.23;1790638;80;21121;-44
2022/05/02 05:39:07;;;;;;;8.20;3.70;;;;;;;14.59;58.09;101357.67;1788681;80;20978;-45
2022/05/02 05:42:00;;;;;;;10.40;4.03;;;;;;;14.65;57.78;101352.33;1782291;80;20840;-44
2022/05/02 05:44:34;;;;;;;12.58;5.20;;;;;;;14.82;56.67;101358.09;1755557;80;21002;-44
2022/05/02 05:47:20;;;;;;;5.00;4.00;;;;;;;14.97;55.99;101357.77;1763554;81;21466;-44
2022/05/02 05:50:26;;;;;;;9.10;4.37;;;;;;;15.06;55.42;101357.55;1763119;81;21325;-43
2022/05/02 05:53:34;;;;;;;10.03;4.67;;;;;;;15.19;55.05;101353.37;1761724;81;21030;-44
2022/05/02 05:56:11;;;;;;;11.28;5.10;;;;;;;15.34;53.88;101361.27;1763082;81;21488;-44
2022/05/02 05:59:06;;;;;;;13.55;5.00;;;;;;;15.35;52.91;101358.61;1763254;81;20975;-44
2022/05/02 06:02:13;;;;;;;17.47;5.47;;;;;;;15.14;51.46;101363.02;1763481;81;21445;-43
2022/05/02 06:04:39;;;;;;;13.22;4.90;;;;;;;15.06;50.84;101360.62;1755735;81;21193;-45
2022/05/02 06:07:06;;;;;;;14.15;5.53;;;;;;;15.09;49.94;101364.45;1733410;81;21029;-45
2022/05/02 06:09:33;;;;;;;17.02;5.30;;;;;;;15.26;48.71;101355.36;1763165;81;20963;-44
2022/05/02 06:12:00;;;;;;;17.10;6.05;;;;;;;15.47;46.36;101353.54;1763288;81;20931;-45
2022/05/02 06:14:30;;;;;;;16.75;6.10;;;;;;;15.66;45.76;101353.09;1763201;81;20892;-45
2022/05/02 06:19:47;;;;;;;25.17;6.50;;;;;;;15.68;46.00;101353.06;1763348;81;21670;-44
2022/05/02 06:22:13;;;;;;;30.40;7.12;;;;;;;15.73;45.22;101359.86;1763160;81;21002;-44
2022/05/02 06:24:44;;;;;;;15.65;5.65;;;;;;;15.76;44.59;101354.55;1709477;81;21074;-44
2022/05/02 06:27:11;;;;;;;11.95;4.25;;;;;;;15.76;43.45;101353.25;1763041;81;20999;-44
2022/05/02 06:29:37;;;;;;;9.83;4.65;;;;;;;15.66;44.43;101351.34;1762813;79;21201;-45
2022/05/02 06:32:08;;;;;;;18.80;4.80;;;;;;;15.62;45.24;101351.45;1762699;81;20928;-44
2022/05/02 06:34:35;;;;;;;16.48;4.87;;;;;;;15.75;44.02;101341.09;1733374;81;20959;-45
2022/05/02 06:37:44;;;;;;;11.48;3.92;;;;;;;15.87;44.28;101344.30;1762872;81;21508;-45
2022/05/02 06:40:41;;;;;;;8.43;3.70;;;;;;;15.98;44.42;101343.58;1762298;81;21561;-44
2022/05/02 06:43:35;;;;;;;14.05;3.20;;;;;;;16.01;43.69;101346.09;1762948;81;21165;-44
2022/05/02 06:46:26;;;;;;;6.40;2.70;;;;;;;16.07;41.50;101348.57;1762478;81;20969;-45
2022/05/02 06:48:57;;;;;;;7.95;2.22;;;;;;;16.11;41.90;101352.40;1761227;81;20970;-45
2022/05/02 06:51:29;;;;;;;8.48;2.72;;;;;;;16.31;40.87;101348.79;1762805;81;21085;-44
2022/05/02 06:54:31;;;;;;;5.33;2.20;;;;;;;16.47;40.15;101347.02;1762968;81;20899;-44
2022/05/02 06:57:43;;;;;;;4.90;2.60;;;;;;;16.61;40.00;101343.56;1762697;81;21167;-44
2022/05/02 07:00:14;;;;;;;8.43;2.05;;;;;;;16.75;39.26;101343.16;1762682;81;20892;-44
2022/05/02 07:03:30;;;;;;;3.15;2.30;;;;;;;16.86;38.49;101338.91;1762700;81;20951;-44
2022/05/02 07:06:16;;;;;;;13.72;1.90;;;;;;;16.88;37.42;101334.48;1762741;81;21061;-45
2022/05/02 07:08:52;;;;;;;4.78;2.22;;;;;;;17.00;35.94;101332.41;1762778;81;21035;-46
2022/05/02 07:11:20;;;;;;;5.90;1.70;;;;;;;16.97;35.20;101342.50;1762685;79;21218;-43
2022/05/02 07:14:05;;;;;;;1.82;1.37;;;;;;;17.08;35.59;101335.19;1762814;81;20987;-44
2022/05/02 07:16:37;;;;;;;2.93;1.70;;;;;;;17.20;35.17;101333.94;1763099;80;20939;-43
2022/05/02 07:19:32;;;;;;;2.22;1.55;;;;;;;17.29;34.96;101326.69;1762716;81;20872;-45
2022/05/02 07:22:04;;;;;;;2.77;1.60;;;;;;;17.47;33.62;101337.86;1763081;81;20990;-44
2022/05/02 07:25:14;;;;;;;1.57;1.40;;;;;;;17.79;34.51;101339.82;1761746;81;21281;-44
2022/05/02 07:28:11;;;;;;;4.97;1.42;;;;;;;18.04;33.32;101336.84;1762789;81;20943;-44
2022/05/02 07:30:38;;;;;;;5.83;1.37;;;;;;;18.26;31.78;101334.75;1762639;81;20927;-44
2022/05/02 07:33:05;;;;;;;2.52;1.52;;;;;;;18.34;30.02;101344.05;1762622;81;21480;-44
2022/05/02 07:35:32;;;;;;;1.40;1.30;;;;;;;18.23;29.35;101337.89;1762762;81;20852;-44
2022/05/02 07:37:59;;;;;;;3.17;1.30;;;;;;;17.81;29.78;101333.23;1732568;81;20998;-44
2022/05/02 07:40:25;;;;;;;2.15;1.25;;;;;;;17.67;29.30;101327.17;1762399;81;20979;-44
2022/05/02 07:42:55;;;;;;;4.40;1.52;;;;;;;17.76;29.73;101324.22;1762678;81;20975;-44
2022/05/02 07:45:27;;;;;;;2.60;1.60;;;;;;;18.02;30.88;101323.78;1762776;81;20979;-45
2022/05/02 07:47:54;;;;;;;6.17;1.60;;;;;;;18.33;31.21;101327.92;1762533;81;20907;-45
2022/05/02 07:50:22;;;;;;;2.47;1.60;;;;;;;18.76;31.57;101336.36;1762732;81;21270;-45
2022/05/02 07:52:49;;;;;;;3.77;1.52;;;;;;;19.18;29.35;101330.35;1762742;80;20951;-45
2022/05/02 07:55:16;;;;;;;3.47;1.60;;;;;;;19.36;30.71;101331.36;1762682;81;20943;-45
2022/05/02 07:57:43;;;;;;;5.28;1.40;;;;;;;19.71;28.55;101334.72;1762751;81;21025;-46
2022/05/02 08:00:12;;;;;;;5.47;1.60;;;;;;;20.01;30.72;101329.55;1762678;81;21044;-43
2022/05/02 08:02:41;;;;;;;2.05;1.40;;;;;;;20.18;28.34;101324.38;1733338;81;21369;-45
2022/05/02 08:05:08;;;;;;;1.60;1.50;;;;;;;20.29;27.51;101329.14;1762651;81;20975;-45
2022/05/02 08:07:39;;;;;;;9.58;1.35;;;;;;;20.34;27.47;101323.23;1762780;81;20935;-44
2022/05/02 08:10:33;;;;;;;2.22;1.20;;;;;;;20.40;26.42;101319.45;1762733;81;20925;-45
2022/05/02 08:13:39;;;;;;;1.60;1.45;;;;;;;20.41;27.24;101312.43;1762694;81;20892;-44
2022/05/02 08:16:19;;;;;;;2.67;1.47;;;;;;;20.60;27.23;101316.36;1762971;80;21235;-44
2022/05/02 08:19:11;;;;;;;7.72;1.70;;;;;;;20.20;27.48;101315.95;1762678;81;20991;-44
2022/05/02 08:27:15;;;;;;;4.25;1.55;;;;;;;19.86;28.38;101319.23;1762289;81;20962;-44
2022/05/02 08:28:03;;;;;;;8.33;1.55;;;;;;;19.86;27.98;101313.98;1762755;81;20944;-44
2022/05/02 08:30:37;;;;;;;1.75;1.50;;;;;;;20.27;27.20;101315.70;1762797;81;21374;-45
2022/05/02 08:33:08;;;;;;;6.25;1.62;;;;;;;20.53;25.86;101317.10;1760337;81;20951;-45
2022/05/02 08:36:05;;;;;;;3.72;1.40;;;;;;;20.42;26.02;101312.34;1762660;80;20962;-45
2022/05/02 08:38:57;;;;;;;3.72;1.67;;;;;;;20.42;25.65;101307.56;1762892;81;21426;-45
2022/05/02 08:41:57;;;;;;;8.10;1.82;;;;;;;20.39;25.37;101296.27;1759111;81;20939;-45
2022/05/02 08:44:46;;;;;;;4.80;1.25;;;;;;;20.43;25.61;101290.86;1760887;81;21922;-45
2022/05/02 08:47:29;;;;;;;4.12;1.47;;;;;;;20.69;25.13;101286.98;1762661;81;20978;-45
2022/05/02 08:50:07;;;;;;;6.37;1.40;;;;;;;21.04;25.55;101279.64;1755620;81;20936;-44
2022/05/02 08:52:56;;;;;;;6.20;1.27;;;;;;;21.45;24.92;101280.66;1762629;81;20924;-45
2022/05/02 08:56:02;;;;;;;3.92;1.20;;;;;;;21.71;23.67;101278.48;1762810;81;20923;-45
2022/05/02 08:58:52;;;;;;;1.72;1.20;;;;;;;21.77;22.79;101279.47;1762771;81;21274;-45
2022/05/02 09:01:45;;;;;;;1.22;1.10;;;;;;;21.35;21.83;101285.54;1762511;81;21057;-45
2022/05/02 09:04:39;;;;;;;4.95;1.47;;;;;;;21.08;23.36;101278.11;1762565;81;20955;-45
2022/05/02 09:07:27;;;;;;;1.90;1.22;;;;;;;21.38;22.84;101269.58;1720395;83;20964;-45
2022/05/02 09:10:16;;;;;;;2.15;1.20;;;;;;;21.66;24.81;101268.66;1763796;81;21744;-45
2022/05/02 09:13:01;;;;;;;3.75;1.30;;;;;;;22.06;23.99;101260.41;1770990;80;21084;-43
2022/05/02 09:16:08;;;;;;;3.58;1.60;;;;;;;22.36;24.34;101268.42;1769967;81;20895;-45
2022/05/02 09:19:10;;;;;;;3.60;1.37;;;;;;;22.29;22.42;101253.86;1770990;81;20935;-44
2022/05/02 09:21:54;;;;;;;1.65;1.42;;;;;;;21.70;23.56;101264.92;1768464;81;20951;-45
2022/05/02 09:24:49;;;;;;;3.98;1.30;;;;;;;21.42;23.48;101251.86;1758118;79;20990;-44
2022/05/02 09:27:57;;;;;;;3.52;1.42;;;;;;;21.07;23.39;101254.48;1771093;80;21036;-45
2022/05/02 09:31:03;;;;;;;6.20;2.33;;;;;;;20.53;24.10;101251.36;1771232;81;21454;-46
2022/05/02 09:34:08;;;;;;;3.33;1.60;;;;;;;20.07;25.69;101252.59;1771130;81;20907;-46
2022/05/02 09:37:05;;;;;;;8.55;1.82;;;;;;;19.56;25.13;101243.47;1771007;81;20951;-45
2022/05/02 09:40:09;;;;;;;2.87;1.30;;;;;;;19.15;25.21;101224.21;1771087;81;21568;-45
2022/05/02 09:43:19;;;;;;;7.90;1.30;;;;;;;18.60;27.74;101239.97;1771143;79;21231;-45
2022/05/02 09:52:05;;;;;;;4.35;1.15;;;;;;;18.32;27.19;101238.43;1771144;81;20952;-45
2022/05/02 09:58:03;;;;;;;5.37;1.87;;;;;;;17.93;27.91;101232.43;1771116;81;21135;-45
2022/05/02 10:03:28;;;;;;;6.08;1.70;;;;;;;17.34;27.73;101226.20;1754463;81;20983;-45
2022/05/02 10:06:33;;;;;;;5.92;1.35;;;;;;;17.44;29.85;101228.52;1771132;80;20958;-45
2022/05/02 10:09:11;;;;;;;5.90;1.50;;;;;;;17.71;28.52;101227.14;1771105;80;20947;-45
2022/05/02 10:12:05;;;;;;;6.40;1.40;;;;;;;17.93;28.00;101223.27;1770988;80;21172;-45
2022/05/02 10:15:12;;;;;;;5.67;1.60;;;;;;;18.07;29.17;101226.27;1770924;81;21013;-45
2022/05/02 10:18:24;;;;;;;2.25;1.32;;;;;;;17.98;28.06;101218.70;1772881;79;21504;-45
2022/05/02 10:21:09;;;;;;;4.60;1.40;;;;;;;17.88;28.22;101218.66;1774344;80;20959;-46
2022/05/02 10:24:07;;;;;;;4.20;1.40;;;;;;;18.07;27.75;101213.17;1774542;80;20994;-46
2022/05/02 10:26:53;;;;;;;3.75;1.25;;;;;;;18.01;27.01;101212.51;1774528;80;21162;-46
2022/05/02 10:30:04;;;;;;;4.10;1.82;;;;;;;18.52;28.23;101204.00;1774425;80;20998;-47
2022/05/02 10:32:44;;;;;;;2.42;1.42;;;;;;;19.18;26.96;101200.46;1774591;80;21444;-45
2022/05/02 10:35:16;;;;;;;8.05;1.40;;;;;;;19.30;27.64;101192.52;1774478;80;21001;-45
2022/05/02 10:37:58;;;;;;;2.15;1.40;;;;;;;19.30;25.82;101193.83;1774384;80;20962;-46
2022/05/02 10:40:40;;;;;;;3.20;1.60;;;;;;;19.04;26.94;101193.63;1774574;80;21234;-45
2022/05/02 10:43:09;;;;;;;6.42;1.85;;;;;;;18.78;26.74;101192.47;1742850;80;20905;-45
2022/05/02 10:45:38;;;;;;;4.15;1.30;;;;;;;18.55;27.73;101184.70;1774525;80;20963;-46
2022/05/02 10:48:27;;;;;;;5.92;1.40;;;;;;;18.34;28.31;101182.87;1774425;80;20998;-45
2022/05/02 10:51:13;;;;;;;10.32;3.87;;;;;;;18.13;28.88;101178.48;1774271;80;20986;-46
2022/05/02 10:54:03;;;;;;;3.65;1.65;;;;;;;18.36;30.38;101178.43;1774684;80;21235;-46
2022/05/02 10:56:44;;;;;;;3.85;1.57;;;;;;;19.27;29.86;101173.42;1774451;80;21385;-45
2022/05/02 10:59:15;;;;;;;5.37;1.60;;;;;;;20.26;26.50;101176.84;1774226;80;20931;-45
2022/05/02 11:02:34;;;;;;;3.83;1.50;;;;;;;20.95;25.96;101158.14;1774256;80;20987;-45
2022/05/02 11:05:11;;;;;;;2.27;1.32;;;;;;;21.44;24.44;101168.36;1774271;80;20994;-44
2022/05/02 11:07:59;;;;;;;3.85;1.52;;;;;;;21.91;24.01;101169.37;1774513;80;21088;-46
2022/05/02 11:10:29;;;;;;;6.03;1.62;;;;;;;22.09;23.24;101159.59;1774595;80;20927;-46
2022/05/02 11:13:11;;;;;;;2.77;1.55;;;;;;;22.25;23.53;101162.69;1774311;80;20947;-45
2022/05/02 11:16:24;;;;;;;12.58;2.33;;;;;;;22.57;23.79;101156.06;1774513;80;20951;-46
2022/05/02 11:22:38;;;;;;;16.90;1.67;;;;;;;21.87;23.08;101160.43;1694557;84;21103;-45
2022/05/02 11:25:11;;;;;;;3.05;1.50;;;;;;;21.31;23.19;101155.45;1755288;81;20931;-44
2022/05/02 11:28:10;;;;;;;1.90;1.25;;;;;;;21.35;23.63;101155.70;1790192;80;20982;-45
2022/05/02 11:30:47;;;;;;;4.33;1.42;;;;;;;21.58;25.31;101144.38;1767001;80;20869;-45
2022/05/02 11:33:30;;;;;;;5.72;1.55;;;;;;;22.14;22.91;101144.84;1751519;81;20942;-45
2022/05/02 11:36:00;;;;;;;4.53;1.40;;;;;;;22.60;22.71;101141.37;1766691;81;21218;-45
2022/05/02 11:38:44;;;;;;;5.08;1.25;;;;;;;22.63;21.25;101139.89;1766685;80;20915;-45
2022/05/02 11:41:18;;;;;;;4.08;1.20;;;;;;;22.29;21.49;101134.38;1766526;80;20889;-46
2022/05/02 11:43:45;;;;;;;1.65;1.10;;;;;;;22.26;22.45;101132.75;1766650;80;20904;-46
2022/05/02 11:46:26;;;;;;;4.05;1.15;;;;;;;22.47;22.25;101126.72;1766597;80;20983;-46
2022/05/02 11:49:40;;;;;;;1.77;1.00;;;;;;;22.62;21.49;101125.46;1766897;81;21132;-46
2022/05/02 11:52:14;;;;;;;3.37;1.30;;;;;;;22.66;21.22;101122.56;1766800;80;20920;-46
2022/05/02 11:54:39;;;;;;;8.03;1.62;;;;;;;22.79;23.45;101121.81;1765554;80;20959;-46
2022/05/02 11:57:20;;;;;;;6.60;1.30;;;;;;;23.17;21.10;101117.80;1766740;80;21019;-46
2022/05/02 12:00:09;;;;;;;2.35;1.10;;;;;;;23.39;22.69;101108.13;1766784;80;21071;-47
2022/05/02 12:03:00;;;;;;;7.55;1.67;;;;;;;23.68;21.63;101108.08;1766768;81;21137;-46
2022/05/02 12:05:42;;;;;;;3.62;1.52;;;;;;;23.85;21.61;101110.09;1737436;80;21014;-46
2022/05/02 12:08:25;;;;;;;3.55;1.25;;;;;;;23.63;21.66;101114.97;1766833;80;21007;-44
2022/05/02 12:11:08;;;;;;;4.55;1.65;;;;;;;23.38;20.70;101110.39;1766732;81;20888;-44
2022/05/02 12:13:45;;;;;;;4.12;1.70;;;;;;;22.96;21.64;101113.75;1763695;80;21391;-44
2022/05/02 12:16:17;;;;;;;7.22;1.40;;;;;;;22.53;21.08;101111.88;1766732;81;21147;-45
2022/05/02 12:18:54;;;;;;;4.65;1.52;;;;;;;22.07;21.57;101117.97;1782594;80;20959;-46
2022/05/02 12:21:38;;;;;;;6.00;1.10;;;;;;;21.60;22.34;101117.48;1788808;80;21015;-45
2022/05/02 12:24:06;;;;;;;2.92;1.80;;;;;;;21.24;23.02;101115.45;1789068;80;21509;-45
2022/05/02 12:26:34;;;;;;;5.70;1.55;;;;;;;21.03;23.61;101116.10;1788763;80;20932;-45
2022/05/02 12:29:04;;;;;;;2.45;1.30;;;;;;;20.82;23.04;101113.64;1788803;80;21278;-46
2022/05/02 12:31:34;;;;;;;2.65;1.22;;;;;;;20.50;23.07;101112.16;1763033;80;20884;-45
2022/05/02 12:34:07;;;;;;;6.40;1.25;;;;;;;20.32;24.01;101109.98;1788785;80;20908;-46